Decoded Metar for KLOR (LOWE AHP/FT. RUC in AL, USA) (IATA:LOR) | Meteo·Mobile Aviation Weather
aviador You're here:

KLOR Decoded Metar

LOWE AHP/FT. RUC in AL, USA
Report Time2019-02-16 07:58:00
UTC Time2019-02-16 08:05:19
Flight Rules mvfr MVFR
Wind200° at 05 kt
W.Decomp.*RWY 18: 4.6 kt HW 2.0 kt RCW
RWY 24: 4.0 kt HW 3 kt LCW
W.Rank200° ranks 3
Current wind is below 200° avg. (6.4)
Visibility9999 m
Phenomena:N/A
Clouds:Broken 013 Hf
Overcast 019 Hf
Expected CloudBase > 400 ft AGL from Temp-Dew spread
Ceiling1,300 ft
Temp17°C (ISA +2)
Dew Point16°C (94% RH)
QNH1009 hPa
Density Alt912 ft
Elevation243 ft
Report Wrong Elevation
Raw Report
METAR KLOR 160758Z AUTO 20005KT 10SM BKN013 OVC019 17/16 A2981 RMK
AO2 SLP077 T01680160=

Extra information for KLOR:More info

Metar Taf Metar & Taf Last 4 Metars F.Rules Stats Wind Profile Meteogram Temp Stats Airport Information Weather charts Add Link Nearby VenuesMetar ALERT Operation Metar Decoded Social comments

AIRNAV info for KLOR